sensor_id;sensor_type;location;lat;lon;timestamp;temperature;humidity
51733;DHT22;39139;53.144;6.244;2023-10-13T00:01:22;14.20;99.90
51733;DHT22;39139;53.144;6.244;2023-10-13T00:03:48;14.30;99.90
51733;DHT22;39139;53.144;6.244;2023-10-13T00:06:13;14.30;99.90
51733;DHT22;39139;53.144;6.244;2023-10-13T00:08:41;14.40;99.90
51733;DHT22;39139;53.144;6.244;2023-10-13T00:11:12;14.40;99.90
51733;DHT22;39139;53.144;6.244;2023-10-13T00:13:37;14.30;99.90
51733;DHT22;39139;53.144;6.244;2023-10-13T00:16:08;14.40;99.90
51733;DHT22;39139;53.144;6.244;2023-10-13T00:18:42;14.50;99.90
51733;DHT22;39139;53.144;6.244;2023-10-13T00:21:10;14.50;99.90
51733;DHT22;39139;53.144;6.244;2023-10-13T00:23:42;14.50;99.90
51733;DHT22;39139;53.144;6.244;2023-10-13T00:26:26;14.60;99.90
51733;DHT22;39139;53.144;6.244;2023-10-13T00:29:00;14.60;99.90
51733;DHT22;39139;53.144;6.244;2023-10-13T00:31:40;14.70;99.90
51733;DHT22;39139;53.144;6.244;2023-10-13T00:34:09;14.60;99.90
51733;DHT22;39139;53.144;6.244;2023-10-13T00:36:45;14.70;99.90
51733;DHT22;39139;53.144;6.244;2023-10-13T00:39:15;14.70;99.90
51733;DHT22;39139;53.144;6.244;2023-10-13T00:41:42;14.70;99.90
51733;DHT22;39139;53.144;6.244;2023-10-13T00:44:20;14.80;99.90
51733;DHT22;39139;53.144;6.244;2023-10-13T00:47:04;14.80;99.90
51733;DHT22;39139;53.144;6.244;2023-10-13T00:49:33;14.90;99.90
51733;DHT22;39139;53.144;6.244;2023-10-13T00:52:05;14.90;99.90
51733;DHT22;39139;53.144;6.244;2023-10-13T00:54:31;14.90;99.90
51733;DHT22;39139;53.144;6.244;2023-10-13T00:57:01;15.00;99.90
51733;DHT22;39139;53.144;6.244;2023-10-13T00:59:36;15.00;99.90
51733;DHT22;39139;53.144;6.244;2023-10-13T01:02:02;15.00;99.90
51733;DHT22;39139;53.144;6.244;2023-10-13T01:04:48;15.10;99.90
51733;DHT22;39139;53.144;6.244;2023-10-13T01:07:14;15.10;99.90
51733;DHT22;39139;53.144;6.244;2023-10-13T01:09:44;15.10;99.90
51733;DHT22;39139;53.144;6.244;2023-10-13T01:12:12;15.20;99.90
51733;DHT22;39139;53.144;6.244;2023-10-13T01:14:38;15.20;99.90
51733;DHT22;39139;53.144;6.244;2023-10-13T01:17:03;15.10;99.90
51733;DHT22;39139;53.144;6.244;2023-10-13T01:19:29;15.30;99.90
51733;DHT22;39139;53.144;6.244;2023-10-13T01:21:55;15.20;99.90
51733;DHT22;39139;53.144;6.244;2023-10-13T01:24:32;15.20;99.90
51733;DHT22;39139;53.144;6.244;2023-10-13T01:27:06;15.30;99.90
51733;DHT22;39139;53.144;6.244;2023-10-13T01:29:47;15.40;99.90
51733;DHT22;39139;53.144;6.244;2023-10-13T01:32:14;15.50;99.90
51733;DHT22;39139;53.144;6.244;2023-10-13T01:34:40;15.50;99.90
51733;DHT22;39139;53.144;6.244;2023-10-13T01:37:11;15.60;99.90
51733;DHT22;39139;53.144;6.244;2023-10-13T01:39:37;15.60;99.90
51733;DHT22;39139;53.144;6.244;2023-10-13T01:42:03;15.60;99.90
51733;DHT22;39139;53.144;6.244;2023-10-13T01:44:29;15.70;99.90
51733;DHT22;39139;53.144;6.244;2023-10-13T01:46:59;15.60;99.90
51733;DHT22;39139;53.144;6.244;2023-10-13T01:49:32;15.60;99.90
51733;DHT22;39139;53.144;6.244;2023-10-13T01:52:07;15.60;99.90
51733;DHT22;39139;53.144;6.244;2023-10-13T01:54:36;15.60;99.90
51733;DHT22;39139;53.144;6.244;2023-10-13T01:57:08;15.60;99.90
51733;DHT22;39139;53.144;6.244;2023-10-13T01:59:39;15.70;99.90
51733;DHT22;39139;53.144;6.244;2023-10-13T02:02:09;15.70;99.90
51733;DHT22;39139;53.144;6.244;2023-10-13T02:04:41;15.60;99.90
51733;DHT22;39139;53.144;6.244;2023-10-13T02:07:15;15.70;99.90
51733;DHT22;39139;53.144;6.244;2023-10-13T02:09:41;15.70;99.90
51733;DHT22;39139;53.144;6.244;2023-10-13T02:12:08;15.70;99.90
51733;DHT22;39139;53.144;6.244;2023-10-13T02:14:35;15.70;99.90
51733;DHT22;39139;53.144;6.244;2023-10-13T02:17:02;15.60;99.90
51733;DHT22;39139;53.144;6.244;2023-10-13T02:19:42;15.70;99.90
51733;DHT22;39139;53.144;6.244;2023-10-13T02:22:12;15.70;99.90
51733;DHT22;39139;53.144;6.244;2023-10-13T02:24:49;15.80;99.90
51733;DHT22;39139;53.144;6.244;2023-10-13T02:27:17;15.80;99.90
51733;DHT22;39139;53.144;6.244;2023-10-13T02:29:43;15.80;99.90
51733;DHT22;39139;53.144;6.244;2023-10-13T02:32:11;15.80;99.90
51733;DHT22;39139;53.144;6.244;2023-10-13T02:34:55;15.80;99.90
51733;DHT22;39139;53.144;6.244;2023-10-13T02:37:31;15.80;99.90
51733;DHT22;39139;53.144;6.244;2023-10-13T02:39:56;15.90;99.90
51733;DHT22;39139;53.144;6.244;2023-10-13T02:42:23;15.90;99.90
51733;DHT22;39139;53.144;6.244;2023-10-13T02:44:49;15.80;99.90
51733;DHT22;39139;53.144;6.244;2023-10-13T02:47:15;15.90;99.90
51733;DHT22;39139;53.144;6.244;2023-10-13T02:49:41;16.00;99.90
51733;DHT22;39139;53.144;6.244;2023-10-13T02:52:11;15.90;99.90
51733;DHT22;39139;53.144;6.244;2023-10-13T02:54:41;15.90;99.90
51733;DHT22;39139;53.144;6.244;2023-10-13T02:57:15;15.90;99.90
51733;DHT22;39139;53.144;6.244;2023-10-13T02:59:41;15.90;99.90
51733;DHT22;39139;53.144;6.244;2023-10-13T03:02:16;15.90;99.90
51733;DHT22;39139;53.144;6.244;2023-10-13T03:04:46;16.00;99.90
51733;DHT22;39139;53.144;6.244;2023-10-13T03:07:12;15.90;99.90
51733;DHT22;39139;53.144;6.244;2023-10-13T03:09:41;15.90;99.90
51733;DHT22;39139;53.144;6.244;2023-10-13T03:12:16;15.90;99.90
51733;DHT22;39139;53.144;6.244;2023-10-13T03:14:41;15.90;99.90
51733;DHT22;39139;53.144;6.244;2023-10-13T03:17:07;15.90;99.90
51733;DHT22;39139;53.144;6.244;2023-10-13T03:19:44;15.90;99.90
51733;DHT22;39139;53.144;6.244;2023-10-13T03:22:16;16.00;99.90
51733;DHT22;39139;53.144;6.244;2023-10-13T03:24:43;15.90;99.90
51733;DHT22;39139;53.144;6.244;2023-10-13T03:27:19;16.00;99.90
51733;DHT22;39139;53.144;6.244;2023-10-13T03:29:48;16.00;99.90
51733;DHT22;39139;53.144;6.244;2023-10-13T03:32:20;16.00;99.90
51733;DHT22;39139;53.144;6.244;2023-10-13T03:34:47;16.00;99.90
51733;DHT22;39139;53.144;6.244;2023-10-13T03:37:19;16.00;99.90
51733;DHT22;39139;53.144;6.244;2023-10-13T03:40:10;16.00;99.90
51733;DHT22;39139;53.144;6.244;2023-10-13T03:45:39;16.10;99.90
51733;DHT22;39139;53.144;6.244;2023-10-13T03:48:06;16.00;99.90
51733;DHT22;39139;53.144;6.244;2023-10-13T03:50:39;16.00;99.90
51733;DHT22;39139;53.144;6.244;2023-10-13T03:53:13;16.10;99.90
51733;DHT22;39139;53.144;6.244;2023-10-13T03:55:39;16.00;99.90
51733;DHT22;39139;53.144;6.244;2023-10-13T03:58:05;15.90;99.90
51733;DHT22;39139;53.144;6.244;2023-10-13T04:00:32;15.90;99.90
51733;DHT22;39139;53.144;6.244;2023-10-13T04:02:58;16.10;99.90
51733;DHT22;39139;53.144;6.244;2023-10-13T04:05:41;15.90;99.90
51733;DHT22;39139;53.144;6.244;2023-10-13T04:08:12;16.00;99.90
51733;DHT22;39139;53.144;6.244;2023-10-13T04:10:55;15.90;99.90
51733;DHT22;39139;53.144;6.244;2023-10-13T04:13:21;15.90;99.90
51733;DHT22;39139;53.144;6.244;2023-10-13T04:16:07;16.00;99.90
51733;DHT22;39139;53.144;6.244;2023-10-13T04:18:51;16.00;99.90
51733;DHT22;39139;53.144;6.244;2023-10-13T04:21:25;16.00;99.90
51733;DHT22;39139;53.144;6.244;2023-10-13T04:24:11;16.00;99.90
51733;DHT22;39139;53.144;6.244;2023-10-13T04:26:50;16.10;99.90
51733;DHT22;39139;53.144;6.244;2023-10-13T04:29:35;16.10;99.90
51733;DHT22;39139;53.144;6.244;2023-10-13T04:32:12;16.10;99.90
51733;DHT22;39139;53.144;6.244;2023-10-13T04:34:57;16.10;99.90
51733;DHT22;39139;53.144;6.244;2023-10-13T04:37:34;16.10;99.90
51733;DHT22;39139;53.144;6.244;2023-10-13T04:40:14;16.10;99.90
51733;DHT22;39139;53.144;6.244;2023-10-13T04:42:40;16.20;99.90
51733;DHT22;39139;53.144;6.244;2023-10-13T04:45:22;16.10;99.90
51733;DHT22;39139;53.144;6.244;2023-10-13T04:47:59;16.00;99.90
51733;DHT22;39139;53.144;6.244;2023-10-13T04:50:49;16.10;99.90
51733;DHT22;39139;53.144;6.244;2023-10-13T04:53:24;16.20;99.90
51733;DHT22;39139;53.144;6.244;2023-10-13T04:56:00;16.00;99.90
51733;DHT22;39139;53.144;6.244;2023-10-13T04:58:29;16.10;99.90
51733;DHT22;39139;53.144;6.244;2023-10-13T05:01:04;16.00;99.90
51733;DHT22;39139;53.144;6.244;2023-10-13T05:04:08;16.10;99.90
51733;DHT22;39139;53.144;6.244;2023-10-13T05:06:40;16.10;99.90
51733;DHT22;39139;53.144;6.244;2023-10-13T05:09:12;16.10;99.90
51733;DHT22;39139;53.144;6.244;2023-10-13T05:11:57;16.20;99.90
51733;DHT22;39139;53.144;6.244;2023-10-13T05:14:41;16.10;99.90
51733;DHT22;39139;53.144;6.244;2023-10-13T05:17:25;16.10;99.90
51733;DHT22;39139;53.144;6.244;2023-10-13T05:20:09;16.10;99.90
51733;DHT22;39139;53.144;6.244;2023-10-13T05:22:53;16.00;99.90
51733;DHT22;39139;53.144;6.244;2023-10-13T05:25:38;16.10;99.90
51733;DHT22;39139;53.144;6.244;2023-10-13T05:28:22;16.10;99.90
51733;DHT22;39139;53.144;6.244;2023-10-13T05:31:07;16.00;99.90
51733;DHT22;39139;53.144;6.244;2023-10-13T05:33:52;16.00;99.90
51733;DHT22;39139;53.144;6.244;2023-10-13T05:36:36;16.10;99.90
51733;DHT22;39139;53.144;6.244;2023-10-13T05:39:20;15.90;99.90
51733;DHT22;39139;53.144;6.244;2023-10-13T05:42:04;15.90;99.90
51733;DHT22;39139;53.144;6.244;2023-10-13T05:44:49;15.80;99.90
51733;DHT22;39139;53.144;6.244;2023-10-13T05:47:53;15.80;99.90
51733;DHT22;39139;53.144;6.244;2023-10-13T05:50:37;15.80;99.90
51733;DHT22;39139;53.144;6.244;2023-10-13T05:53:22;15.70;99.90
51733;DHT22;39139;53.144;6.244;2023-10-13T05:56:06;15.70;99.90
51733;DHT22;39139;53.144;6.244;2023-10-13T05:58:51;15.70;99.90
51733;DHT22;39139;53.144;6.244;2023-10-13T06:01:35;15.80;99.90
51733;DHT22;39139;53.144;6.244;2023-10-13T06:04:19;15.90;99.90
51733;DHT22;39139;53.144;6.244;2023-10-13T06:07:10;15.80;99.90
51733;DHT22;39139;53.144;6.244;2023-10-13T06:09:55;15.70;99.90
51733;DHT22;39139;53.144;6.244;2023-10-13T06:12:40;15.70;99.90
51733;DHT22;39139;53.144;6.244;2023-10-13T06:15:24;15.80;99.90
51733;DHT22;39139;53.144;6.244;2023-10-13T06:18:08;15.70;99.90
51733;DHT22;39139;53.144;6.244;2023-10-13T06:20:52;15.70;99.90
51733;DHT22;39139;53.144;6.244;2023-10-13T06:23:37;15.80;99.90
51733;DHT22;39139;53.144;6.244;2023-10-13T06:26:21;15.80;99.90
51733;DHT22;39139;53.144;6.244;2023-10-13T06:29:05;15.80;99.90
51733;DHT22;39139;53.144;6.244;2023-10-13T06:31:33;15.90;99.90
51733;DHT22;39139;53.144;6.244;2023-10-13T06:34:00;15.80;99.90
51733;DHT22;39139;53.144;6.244;2023-10-13T06:36:28;15.90;99.90
51733;DHT22;39139;53.144;6.244;2023-10-13T06:38:54;15.90;99.90
51733;DHT22;39139;53.144;6.244;2023-10-13T06:41:42;15.80;99.90
51733;DHT22;39139;53.144;6.244;2023-10-13T06:44:09;16.00;99.90
51733;DHT22;39139;53.144;6.244;2023-10-13T06:46:40;16.00;99.90
51733;DHT22;39139;53.144;6.244;2023-10-13T06:49:06;16.00;99.90
51733;DHT22;39139;53.144;6.244;2023-10-13T06:51:34;16.00;99.90
51733;DHT22;39139;53.144;6.244;2023-10-13T06:54:04;16.00;99.90
51733;DHT22;39139;53.144;6.244;2023-10-13T06:56:35;16.10;99.90
51733;DHT22;39139;53.144;6.244;2023-10-13T06:59:05;16.10;99.90
51733;DHT22;39139;53.144;6.244;2023-10-13T07:01:32;16.00;99.90
51733;DHT22;39139;53.144;6.244;2023-10-13T07:04:08;16.00;99.90
51733;DHT22;39139;53.144;6.244;2023-10-13T07:06:43;16.20;99.90
51733;DHT22;39139;53.144;6.244;2023-10-13T07:09:16;16.10;99.90
51733;DHT22;39139;53.144;6.244;2023-10-13T07:12:01;16.10;99.90
51733;DHT22;39139;53.144;6.244;2023-10-13T07:14:29;16.10;99.90
51733;DHT22;39139;53.144;6.244;2023-10-13T07:17:02;16.10;99.90
51733;DHT22;39139;53.144;6.244;2023-10-13T07:19:30;16.20;99.90
51733;DHT22;39139;53.144;6.244;2023-10-13T07:21:58;16.10;99.90
51733;DHT22;39139;53.144;6.244;2023-10-13T07:24:27;16.10;99.90
51733;DHT22;39139;53.144;6.244;2023-10-13T07:26:58;16.10;99.90
51733;DHT22;39139;53.144;6.244;2023-10-13T07:29:28;16.10;99.90
51733;DHT22;39139;53.144;6.244;2023-10-13T07:31:54;16.10;99.90
51733;DHT22;39139;53.144;6.244;2023-10-13T07:34:20;16.10;99.90
51733;DHT22;39139;53.144;6.244;2023-10-13T07:36:55;16.10;99.90
51733;DHT22;39139;53.144;6.244;2023-10-13T07:39:31;16.00;99.90
51733;DHT22;39139;53.144;6.244;2023-10-13T07:42:00;16.00;99.90
51733;DHT22;39139;53.144;6.244;2023-10-13T07:44:30;16.00;99.90
51733;DHT22;39139;53.144;6.244;2023-10-13T07:46:59;16.00;99.90
51733;DHT22;39139;53.144;6.244;2023-10-13T07:49:33;16.00;99.90
51733;DHT22;39139;53.144;6.244;2023-10-13T07:52:02;16.10;99.90
51733;DHT22;39139;53.144;6.244;2023-10-13T07:54:48;16.10;99.90
51733;DHT22;39139;53.144;6.244;2023-10-13T07:57:15;16.10;99.90
51733;DHT22;39139;53.144;6.244;2023-10-13T07:59:41;16.00;99.90
51733;DHT22;39139;53.144;6.244;2023-10-13T08:02:17;16.10;99.90
51733;DHT22;39139;53.144;6.244;2023-10-13T08:05:03;16.00;99.90
51733;DHT22;39139;53.144;6.244;2023-10-13T08:07:34;16.10;99.90
51733;DHT22;39139;53.144;6.244;2023-10-13T08:10:05;16.10;99.90
51733;DHT22;39139;53.144;6.244;2023-10-13T08:12:35;16.20;99.90
51733;DHT22;39139;53.144;6.244;2023-10-13T08:15:03;16.10;99.90
51733;DHT22;39139;53.144;6.244;2023-10-13T08:17:47;16.10;99.90
51733;DHT22;39139;53.144;6.244;2023-10-13T08:20:13;16.20;99.90
51733;DHT22;39139;53.144;6.244;2023-10-13T08:22:42;16.00;99.90
51733;DHT22;39139;53.144;6.244;2023-10-13T08:25:12;16.10;99.90
51733;DHT22;39139;53.144;6.244;2023-10-13T08:27:46;16.20;99.90
51733;DHT22;39139;53.144;6.244;2023-10-13T08:30:30;16.10;99.90
51733;DHT22;39139;53.144;6.244;2023-10-13T08:32:56;16.30;99.90
51733;DHT22;39139;53.144;6.244;2023-10-13T08:35:25;16.30;99.90
51733;DHT22;39139;53.144;6.244;2023-10-13T08:38:03;16.20;99.90
51733;DHT22;39139;53.144;6.244;2023-10-13T08:40:43;16.30;99.90
51733;DHT22;39139;53.144;6.244;2023-10-13T08:43:22;16.30;99.90
51733;DHT22;39139;53.144;6.244;2023-10-13T08:45:49;16.30;99.90
51733;DHT22;39139;53.144;6.244;2023-10-13T08:48:17;16.50;99.90
51733;DHT22;39139;53.144;6.244;2023-10-13T08:50:49;16.40;99.90
51733;DHT22;39139;53.144;6.244;2023-10-13T08:53:25;16.40;99.90
51733;DHT22;39139;53.144;6.244;2023-10-13T08:56:07;16.60;99.90
51733;DHT22;39139;53.144;6.244;2023-10-13T08:58:48;16.60;99.90
51733;DHT22;39139;53.144;6.244;2023-10-13T09:01:23;16.70;99.90
51733;DHT22;39139;53.144;6.244;2023-10-13T09:04:09;16.60;99.90
51733;DHT22;39139;53.144;6.244;2023-10-13T09:06:57;16.70;99.90
51733;DHT22;39139;53.144;6.244;2023-10-13T09:09:44;16.90;99.90
51733;DHT22;39139;53.144;6.244;2023-10-13T09:12:13;16.80;99.90
51733;DHT22;39139;53.144;6.244;2023-10-13T09:14:41;16.90;99.90
51733;DHT22;39139;53.144;6.244;2023-10-13T09:17:11;16.90;99.90
51733;DHT22;39139;53.144;6.244;2023-10-13T09:19:55;17.10;99.90
51733;DHT22;39139;53.144;6.244;2023-10-13T09:24:59;17.20;99.90
51733;DHT22;39139;53.144;6.244;2023-10-13T09:27:27;17.30;99.90
51733;DHT22;39139;53.144;6.244;2023-10-13T09:29:57;17.20;99.90
51733;DHT22;39139;53.144;6.244;2023-10-13T09:32:22;17.30;99.90
51733;DHT22;39139;53.144;6.244;2023-10-13T09:34:48;17.30;99.90
51733;DHT22;39139;53.144;6.244;2023-10-13T09:37:16;17.30;99.90
51733;DHT22;39139;53.144;6.244;2023-10-13T09:39:49;17.50;99.90
51733;DHT22;39139;53.144;6.244;2023-10-13T09:42:18;17.40;99.90
51733;DHT22;39139;53.144;6.244;2023-10-13T09:44:45;17.50;99.90
51733;DHT22;39139;53.144;6.244;2023-10-13T09:47:20;17.50;99.90
51733;DHT22;39139;53.144;6.244;2023-10-13T09:49:50;17.60;99.90
51733;DHT22;39139;53.144;6.244;2023-10-13T09:52:18;17.60;99.90
51733;DHT22;39139;53.144;6.244;2023-10-13T09:55:00;17.80;99.90
51733;DHT22;39139;53.144;6.244;2023-10-13T09:57:32;17.90;99.90
51733;DHT22;39139;53.144;6.244;2023-10-13T10:00:10;17.90;99.90
51733;DHT22;39139;53.144;6.244;2023-10-13T10:02:55;17.90;99.90
51733;DHT22;39139;53.144;6.244;2023-10-13T10:05:25;18.00;99.90
51733;DHT22;39139;53.144;6.244;2023-10-13T10:07:55;17.90;99.90
51733;DHT22;39139;53.144;6.244;2023-10-13T10:10:39;18.00;99.90
51733;DHT22;39139;53.144;6.244;2023-10-13T10:13:47;18.00;99.90
51733;DHT22;39139;53.144;6.244;2023-10-13T10:16:11;18.00;99.90
51733;DHT22;39139;53.144;6.244;2023-10-13T10:18:45;18.00;99.90
51733;DHT22;39139;53.144;6.244;2023-10-13T10:21:10;18.10;99.90
51733;DHT22;39139;53.144;6.244;2023-10-13T10:23:52;18.20;99.90
51733;DHT22;39139;53.144;6.244;2023-10-13T10:26:18;18.20;99.90
51733;DHT22;39139;53.144;6.244;2023-10-13T10:28:47;18.20;99.90
51733;DHT22;39139;53.144;6.244;2023-10-13T10:31:13;18.30;99.90
51733;DHT22;39139;53.144;6.244;2023-10-13T10:33:47;18.30;99.90
51733;DHT22;39139;53.144;6.244;2023-10-13T10:36:17;18.40;99.90
51733;DHT22;39139;53.144;6.244;2023-10-13T10:38:57;18.40;99.90
51733;DHT22;39139;53.144;6.244;2023-10-13T10:41:30;18.40;99.90
51733;DHT22;39139;53.144;6.244;2023-10-13T10:44:19;18.50;99.90
51733;DHT22;39139;53.144;6.244;2023-10-13T10:46:51;18.50;99.90
51733;DHT22;39139;53.144;6.244;2023-10-13T10:49:19;18.10;99.90
51733;DHT22;39139;53.144;6.244;2023-10-13T10:51:59;18.50;99.90
51733;DHT22;39139;53.144;6.244;2023-10-13T10:54:30;18.60;99.90
51733;DHT22;39139;53.144;6.244;2023-10-13T10:56:59;18.80;99.90
51733;DHT22;39139;53.144;6.244;2023-10-13T10:59:45;18.90;99.90
51733;DHT22;39139;53.144;6.244;2023-10-13T11:02:11;18.90;99.90
51733;DHT22;39139;53.144;6.244;2023-10-13T11:04:41;19.00;99.90
51733;DHT22;39139;53.144;6.244;2023-10-13T11:07:21;19.00;99.90
51733;DHT22;39139;53.144;6.244;2023-10-13T11:09:48;19.00;99.90
51733;DHT22;39139;53.144;6.244;2023-10-13T11:12:19;19.00;99.90
51733;DHT22;39139;53.144;6.244;2023-10-13T11:15:06;19.00;99.90
51733;DHT22;39139;53.144;6.244;2023-10-13T11:17:51;18.90;99.90
51733;DHT22;39139;53.144;6.244;2023-10-13T11:20:20;18.90;99.90
51733;DHT22;39139;53.144;6.244;2023-10-13T11:23:00;18.90;99.90
51733;DHT22;39139;53.144;6.244;2023-10-13T11:25:30;18.90;99.90
51733;DHT22;39139;53.144;6.244;2023-10-13T11:30:35;19.00;99.90
51733;DHT22;39139;53.144;6.244;2023-10-13T11:33:05;19.00;99.90
51733;DHT22;39139;53.144;6.244;2023-10-13T11:35:36;19.00;99.90
51733;DHT22;39139;53.144;6.244;2023-10-13T11:38:30;19.00;99.90
51733;DHT22;39139;53.144;6.244;2023-10-13T11:41:14;18.90;99.90
51733;DHT22;39139;53.144;6.244;2023-10-13T11:43:46;18.80;99.90
51733;DHT22;39139;53.144;6.244;2023-10-13T11:46:25;18.70;99.90
51733;DHT22;39139;53.144;6.244;2023-10-13T11:49:01;18.60;99.90
51733;DHT22;39139;53.144;6.244;2023-10-13T11:51:40;18.60;99.90
51733;DHT22;39139;53.144;6.244;2023-10-13T11:54:13;18.60;99.90
51733;DHT22;39139;53.144;6.244;2023-10-13T11:56:41;18.50;99.90
51733;DHT22;39139;53.144;6.244;2023-10-13T11:59:06;18.50;99.90
51733;DHT22;39139;53.144;6.244;2023-10-13T12:01:42;18.50;99.90
51733;DHT22;39139;53.144;6.244;2023-10-13T12:04:36;18.40;99.90
51733;DHT22;39139;53.144;6.244;2023-10-13T12:07:23;18.50;99.90
51733;DHT22;39139;53.144;6.244;2023-10-13T12:09:53;18.60;99.90
51733;DHT22;39139;53.144;6.244;2023-10-13T12:12:27;18.50;99.90
51733;DHT22;39139;53.144;6.244;2023-10-13T12:14:54;18.60;99.90
51733;DHT22;39139;53.144;6.244;2023-10-13T12:17:25;18.60;99.90
51733;DHT22;39139;53.144;6.244;2023-10-13T12:19:54;18.60;99.90
51733;DHT22;39139;53.144;6.244;2023-10-13T12:22:20;18.60;99.90
51733;DHT22;39139;53.144;6.244;2023-10-13T12:25:07;18.60;99.90
51733;DHT22;39139;53.144;6.244;2023-10-13T12:27:53;18.60;99.90
51733;DHT22;39139;53.144;6.244;2023-10-13T12:30:23;18.60;99.90
51733;DHT22;39139;53.144;6.244;2023-10-13T12:33:01;18.70;99.90
51733;DHT22;39139;53.144;6.244;2023-10-13T12:35:35;18.70;99.90
51733;DHT22;39139;53.144;6.244;2023-10-13T12:38:10;18.60;99.90
51733;DHT22;39139;53.144;6.244;2023-10-13T12:41:04;18.60;99.90
51733;DHT22;39139;53.144;6.244;2023-10-13T12:43:49;18.60;99.90
51733;DHT22;39139;53.144;6.244;2023-10-13T12:46:33;18.50;99.90
51733;DHT22;39139;53.144;6.244;2023-10-13T12:49:17;18.50;99.90
51733;DHT22;39139;53.144;6.244;2023-10-13T12:52:01;18.50;99.90
51733;DHT22;39139;53.144;6.244;2023-10-13T12:54:27;18.40;99.90
51733;DHT22;39139;53.144;6.244;2023-10-13T12:57:01;18.30;99.90
51733;DHT22;39139;53.144;6.244;2023-10-13T12:59:27;18.30;99.90
51733;DHT22;39139;53.144;6.244;2023-10-13T13:01:53;18.30;99.90
51733;DHT22;39139;53.144;6.244;2023-10-13T13:04:19;18.20;99.90
51733;DHT22;39139;53.144;6.244;2023-10-13T13:06:51;18.20;99.90
51733;DHT22;39139;53.144;6.244;2023-10-13T13:09:19;18.20;99.90
51733;DHT22;39139;53.144;6.244;2023-10-13T13:11:54;18.10;99.90
51733;DHT22;39139;53.144;6.244;2023-10-13T13:14:24;18.10;99.90
51733;DHT22;39139;53.144;6.244;2023-10-13T13:16:56;18.10;99.90
51733;DHT22;39139;53.144;6.244;2023-10-13T13:19:35;18.00;99.90
51733;DHT22;39139;53.144;6.244;2023-10-13T13:22:08;18.00;99.90
51733;DHT22;39139;53.144;6.244;2023-10-13T13:24:46;18.00;99.90
51733;DHT22;39139;53.144;6.244;2023-10-13T13:27:14;18.00;99.90
51733;DHT22;39139;53.144;6.244;2023-10-13T13:29:41;18.00;99.90
51733;DHT22;39139;53.144;6.244;2023-10-13T13:32:07;17.90;99.90
51733;DHT22;39139;53.144;6.244;2023-10-13T13:34:43;17.90;99.90
51733;DHT22;39139;53.144;6.244;2023-10-13T13:37:09;17.90;99.90
51733;DHT22;39139;53.144;6.244;2023-10-13T13:39:38;17.80;99.90
51733;DHT22;39139;53.144;6.244;2023-10-13T13:42:11;17.90;99.90
51733;DHT22;39139;53.144;6.244;2023-10-13T13:44:45;17.80;99.90
51733;DHT22;39139;53.144;6.244;2023-10-13T13:47:14;17.80;99.90
51733;DHT22;39139;53.144;6.244;2023-10-13T13:49:41;17.80;99.90
51733;DHT22;39139;53.144;6.244;2023-10-13T13:52:11;17.90;99.90
51733;DHT22;39139;53.144;6.244;2023-10-13T13:54:43;17.90;99.90
51733;DHT22;39139;53.144;6.244;2023-10-13T13:57:09;17.90;99.90
51733;DHT22;39139;53.144;6.244;2023-10-13T13:59:35;17.90;99.90
51733;DHT22;39139;53.144;6.244;2023-10-13T14:02:04;17.90;99.90
51733;DHT22;39139;53.144;6.244;2023-10-13T14:04:46;18.00;99.90
51733;DHT22;39139;53.144;6.244;2023-10-13T14:07:13;17.90;99.90
51733;DHT22;39139;53.144;6.244;2023-10-13T14:09:40;18.00;99.90
51733;DHT22;39139;53.144;6.244;2023-10-13T14:12:08;18.00;99.90
51733;DHT22;39139;53.144;6.244;2023-10-13T14:14:54;18.00;99.90
51733;DHT22;39139;53.144;6.244;2023-10-13T14:17:23;18.00;99.90
51733;DHT22;39139;53.144;6.244;2023-10-13T14:19:57;18.00;99.90
51733;DHT22;39139;53.144;6.244;2023-10-13T14:22:24;18.00;99.90
51733;DHT22;39139;53.144;6.244;2023-10-13T14:24:52;18.10;99.90
51733;DHT22;39139;53.144;6.244;2023-10-13T14:27:22;18.10;99.90
51733;DHT22;39139;53.144;6.244;2023-10-13T14:29:51;18.10;99.90
51733;DHT22;39139;53.144;6.244;2023-10-13T14:32:20;18.10;99.90
51733;DHT22;39139;53.144;6.244;2023-10-13T14:34:50;18.10;99.90
51733;DHT22;39139;53.144;6.244;2023-10-13T14:37:20;18.20;99.90
51733;DHT22;39139;53.144;6.244;2023-10-13T14:39:57;18.20;99.90
51733;DHT22;39139;53.144;6.244;2023-10-13T14:42:27;18.20;99.90
51733;DHT22;39139;53.144;6.244;2023-10-13T14:44:53;18.20;99.90
51733;DHT22;39139;53.144;6.244;2023-10-13T14:47:25;18.30;99.90
51733;DHT22;39139;53.144;6.244;2023-10-13T14:49:55;18.20;99.90
51733;DHT22;39139;53.144;6.244;2023-10-13T14:52:22;18.20;99.90
51733;DHT22;39139;53.144;6.244;2023-10-13T14:54:48;18.20;99.90
51733;DHT22;39139;53.144;6.244;2023-10-13T14:57:20;18.20;99.90
51733;DHT22;39139;53.144;6.244;2023-10-13T14:59:53;18.20;99.90
51733;DHT22;39139;53.144;6.244;2023-10-13T15:02:19;18.30;99.90
51733;DHT22;39139;53.144;6.244;2023-10-13T15:04:48;18.30;99.90
51733;DHT22;39139;53.144;6.244;2023-10-13T15:07:18;18.30;99.90
51733;DHT22;39139;53.144;6.244;2023-10-13T15:09:45;18.30;99.90
51733;DHT22;39139;53.144;6.244;2023-10-13T15:12:11;18.20;99.90
51733;DHT22;39139;53.144;6.244;2023-10-13T15:14:40;18.10;99.90
51733;DHT22;39139;53.144;6.244;2023-10-13T15:17:09;18.10;99.90
51733;DHT22;39139;53.144;6.244;2023-10-13T15:19:36;18.10;99.90
51733;DHT22;39139;53.144;6.244;2023-10-13T15:22:04;18.00;99.90
51733;DHT22;39139;53.144;6.244;2023-10-13T15:24:33;18.00;99.90
51733;DHT22;39139;53.144;6.244;2023-10-13T15:27:07;18.00;99.90
51733;DHT22;39139;53.144;6.244;2023-10-13T15:29:34;18.00;99.90
51733;DHT22;39139;53.144;6.244;2023-10-13T15:32:04;17.90;99.90
51733;DHT22;39139;53.144;6.244;2023-10-13T15:34:29;17.90;99.90
51733;DHT22;39139;53.144;6.244;2023-10-13T15:36:56;18.00;99.90
51733;DHT22;39139;53.144;6.244;2023-10-13T15:39:23;17.90;99.90
51733;DHT22;39139;53.144;6.244;2023-10-13T15:41:50;18.00;99.90
51733;DHT22;39139;53.144;6.244;2023-10-13T15:44:22;17.90;99.90
51733;DHT22;39139;53.144;6.244;2023-10-13T15:46:53;17.90;99.90
51733;DHT22;39139;53.144;6.244;2023-10-13T15:49:19;17.90;99.90
51733;DHT22;39139;53.144;6.244;2023-10-13T15:51:44;17.90;99.90
51733;DHT22;39139;53.144;6.244;2023-10-13T15:54:10;17.90;99.90
51733;DHT22;39139;53.144;6.244;2023-10-13T15:56:48;17.90;99.90
51733;DHT22;39139;53.144;6.244;2023-10-13T15:59:14;17.90;99.90
51733;DHT22;39139;53.144;6.244;2023-10-13T16:01:41;17.90;99.90
51733;DHT22;39139;53.144;6.244;2023-10-13T16:04:07;17.90;99.90
51733;DHT22;39139;53.144;6.244;2023-10-13T16:06:44;17.90;99.90
51733;DHT22;39139;53.144;6.244;2023-10-13T16:09:16;17.90;99.90
51733;DHT22;39139;53.144;6.244;2023-10-13T16:11:49;17.90;99.90
51733;DHT22;39139;53.144;6.244;2023-10-13T16:14:15;17.80;99.90
51733;DHT22;39139;53.144;6.244;2023-10-13T16:16:45;17.80;99.90